Annapolis, Missouri
Current Conditions -  °F | °C
As of 12:55 AM on Monday 24 Nov 2014 (Local Time) from KFAM Reporting Station
Broken Clouds Broken Clouds  
Wind Chill: 54°   Ceiling: 8000
Heat Index: 54°   Visibility: 10mi
Dew Point: 52°   Wind: 15mph
Humidity: 94%   Direction: 160°SSE
Pressure: 29.25"   Gusts: 18mph
Location:  37.36°N, 90.7°W
Report Text: KFAM 240655Z AUTO 16013G16KT 10SM FEW065 BKN080 BKN110 12/11 A2925 RMK AO1 LTG DSNT SE P0004
Loading
Personal Weather Stations






























Interactive Weather Map New forecast layout! Learn more

10-Day Weather Forecast

Advertisements
Track Severe Weather on mobile